Time;durP1;ratioP1;P1;durP2;ratioP2;P2;SDS_P1;SDS_P2;PMS_P1;PMS_P2;Temp;Humidity;BMP_temperature;BMP_pressure;BME280_temperature;BME280_humidity;BME280_pressure;Samples;Min_cycle;Max_cycle;Signal;HPM_P1;HPM_P2
2023/07/03 00:01:26;;;;;;;7.73;4.33;;;16.40;99.90;;;;;;5044815;28;20750;-77
2023/07/03 00:03:54;;;;;;;10.53;5.03;;;16.30;99.90;;;;;;5044728;28;20706;-77
2023/07/03 00:06:22;;;;;;;8.87;4.50;;;16.20;99.90;;;;;;5045058;28;20246;-77
2023/07/03 00:08:49;;;;;;;7.57;4.03;;;16.30;99.90;;;;;;5045359;28;20227;-77
2023/07/03 00:11:15;;;;;;;6.53;4.63;;;16.20;99.90;;;;;;5045049;28;20231;-77
2023/07/03 00:13:42;;;;;;;8.67;4.60;;;16.10;99.90;;;;;;5045339;28;20200;-77
2023/07/03 00:16:09;;;;;;;8.70;4.63;;;16.10;99.90;;;;;;5045150;28;20295;-77
2023/07/03 00:18:36;;;;;;;7.00;4.73;;;16.10;99.90;;;;;;5044973;28;20210;-75
2023/07/03 00:21:04;;;;;;;7.93;4.87;;;16.10;99.90;;;;;;5044518;28;20940;-77
2023/07/03 00:23:31;;;;;;;5.07;4.23;;;16.10;99.90;;;;;;5045492;28;20208;-77
2023/07/03 00:25:58;;;;;;;9.90;4.67;;;16.10;99.90;;;;;;5045758;28;20231;-78
2023/07/03 00:28:25;;;;;;;7.50;4.70;;;16.00;99.90;;;;;;5045255;28;20271;-76
2023/07/03 00:30:52;;;;;;;8.53;4.87;;;16.00;99.90;;;;;;5044545;28;20204;-76
2023/07/03 00:33:19;;;;;;;5.87;4.53;;;16.00;99.90;;;;;;5044081;28;20693;-76
2023/07/03 00:35:46;;;;;;;10.70;4.60;;;15.90;99.90;;;;;;5044710;28;21168;-76
2023/07/03 00:38:14;;;;;;;8.63;5.00;;;15.90;99.90;;;;;;5045037;28;20963;-75
2023/07/03 00:40:41;;;;;;;9.00;4.60;;;15.90;99.90;;;;;;5048451;28;20241;-76
2023/07/03 00:43:08;;;;;;;8.00;4.73;;;15.90;99.90;;;;;;5048673;28;20299;-74
2023/07/03 00:45:37;;;;;;;7.63;4.73;;;15.90;99.90;;;;;;5048959;28;20239;-75
2023/07/03 00:48:04;;;;;;;7.20;4.70;;;15.90;99.90;;;;;;5048598;28;20286;-76
2023/07/03 00:50:32;;;;;;;9.20;5.07;;;15.90;99.90;;;;;;5048660;28;20214;-76
2023/07/03 00:53:05;;;;;;;7.10;4.67;;;15.90;99.90;;;;;;5048584;28;20247;-76
2023/07/03 00:55:33;;;;;;;6.37;4.50;;;15.90;99.90;;;;;;5048992;28;20320;-75
2023/07/03 00:58:00;;;;;;;6.60;4.70;;;15.90;99.90;;;;;;5049047;28;20307;-76
2023/07/03 01:00:34;;;;;;;5.53;4.53;;;15.80;99.90;;;;;;5048342;28;20569;-76
2023/07/03 01:03:08;;;;;;;8.93;5.37;;;15.80;99.90;;;;;;5048770;28;20203;-76
2023/07/03 01:05:41;;;;;;;6.43;4.93;;;15.80;99.90;;;;;;5049164;28;20201;-76
2023/07/03 01:08:09;;;;;;;8.40;5.50;;;15.80;99.90;;;;;;5048621;28;20568;-76
2023/07/03 01:10:39;;;;;;;7.13;4.73;;;15.90;99.90;;;;;;5048639;28;20229;-76
2023/07/03 01:13:10;;;;;;;10.83;5.10;;;16.00;99.90;;;;;;5048917;28;20216;-77
2023/07/03 01:15:41;;;;;;;7.23;4.60;;;16.10;99.90;;;;;;5047944;28;20291;-77
2023/07/03 01:18:09;;;;;;;7.90;4.57;;;16.10;99.90;;;;;;5048285;28;20192;-76
2023/07/03 01:20:40;;;;;;;11.63;5.67;;;16.30;99.90;;;;;;5048399;28;20212;-78
2023/07/03 01:23:15;;;;;;;8.53;4.60;;;16.40;99.90;;;;;;5048136;28;20303;-77
2023/07/03 01:25:45;;;;;;;5.37;4.83;;;16.30;99.90;;;;;;5048431;28;20700;-77
2023/07/03 01:28:15;;;;;;;5.23;4.57;;;16.30;99.90;;;;;;5048420;28;20228;-76
2023/07/03 01:30:44;;;;;;;7.00;4.77;;;16.30;99.90;;;;;;5047905;28;20418;-77
2023/07/03 01:33:14;;;;;;;6.93;4.40;;;16.20;99.90;;;;;;5048419;28;20295;-77
2023/07/03 01:35:41;;;;;;;8.93;5.00;;;16.20;99.90;;;;;;5048308;28;20656;-78
2023/07/03 01:38:10;;;;;;;9.93;5.37;;;16.10;99.90;;;;;;5048083;28;20326;-78
2023/07/03 01:40:37;;;;;;;6.97;5.40;;;16.00;99.90;;;;;;5047907;28;20275;-78
2023/07/03 01:43:07;;;;;;;7.60;4.93;;;16.00;99.90;;;;;;5048383;28;20295;-77
2023/07/03 01:45:35;;;;;;;7.57;4.90;;;16.00;99.90;;;;;;5048494;28;20285;-77
2023/07/03 01:48:02;;;;;;;9.07;4.97;;;16.00;99.90;;;;;;5047932;28;20326;-78
2023/07/03 01:50:30;;;;;;;6.97;4.33;;;16.00;99.90;;;;;;5046980;28;20220;-76
2023/07/03 01:53:03;;;;;;;9.90;4.30;;;16.00;99.90;;;;;;5047862;28;20270;-75
2023/07/03 01:55:39;;;;;;;7.07;5.13;;;16.00;99.90;;;;;;5047040;28;20888;-74
2023/07/03 01:58:17;;;;;;;7.37;4.53;;;16.00;99.90;;;;;;5028019;28;20200;-74
2023/07/03 02:00:48;;;;;;;6.47;4.80;;;16.00;99.90;;;;;;5033201;28;20282;-75
2023/07/03 02:03:22;;;;;;;8.10;4.97;;;15.90;99.90;;;;;;5047399;28;20203;-74
2023/07/03 02:05:51;;;;;;;7.47;4.77;;;15.90;99.90;;;;;;5046920;28;20283;-74
2023/07/03 02:08:19;;;;;;;7.73;5.00;;;16.00;99.90;;;;;;5047322;28;20714;-77
2023/07/03 02:10:46;;;;;;;8.87;4.50;;;16.00;99.90;;;;;;5047358;28;20208;-76
2023/07/03 02:13:15;;;;;;;11.33;5.30;;;15.90;99.90;;;;;;5047429;28;20215;-77
2023/07/03 02:15:42;;;;;;;7.10;4.43;;;15.90;99.90;;;;;;5047297;28;20646;-76
2023/07/03 02:18:09;;;;;;;6.27;4.93;;;15.90;99.90;;;;;;5046634;28;20200;-77
2023/07/03 02:20:38;;;;;;;8.60;4.93;;;15.90;99.90;;;;;;5046901;28;20294;-76
2023/07/03 02:23:05;;;;;;;10.23;5.20;;;16.00;99.90;;;;;;5046882;28;20559;-76
2023/07/03 02:25:31;;;;;;;9.13;4.90;;;16.00;99.90;;;;;;5046587;28;20303;-76
2023/07/03 02:27:59;;;;;;;8.33;4.87;;;16.10;99.90;;;;;;5026221;28;20236;-76
2023/07/03 02:30:27;;;;;;;7.60;4.70;;;16.10;99.90;;;;;;5039935;28;20215;-76
2023/07/03 02:32:54;;;;;;;7.80;4.70;;;16.20;99.90;;;;;;5045089;28;20235;-76
2023/07/03 02:35:21;;;;;;;10.20;4.97;;;16.00;99.90;;;;;;5044632;28;20346;-76
2023/07/03 02:37:48;;;;;;;9.90;5.00;;;16.10;99.90;;;;;;5030296;28;20291;-76
2023/07/03 02:40:15;;;;;;;6.70;4.80;;;16.10;99.90;;;;;;5037162;28;20322;-76
2023/07/03 02:42:42;;;;;;;8.57;5.30;;;16.10;99.90;;;;;;5035074;28;20214;-76
2023/07/03 02:45:09;;;;;;;7.50;4.93;;;16.10;99.90;;;;;;5044940;28;20240;-76
2023/07/03 02:47:39;;;;;;;10.03;4.83;;;16.10;99.90;;;;;;5044383;28;20548;-76
2023/07/03 02:50:07;;;;;;;7.67;4.70;;;16.10;99.90;;;;;;5044789;28;20282;-78
2023/07/03 02:52:34;;;;;;;11.30;4.90;;;16.10;99.90;;;;;;5044528;28;20216;-77
2023/07/03 02:55:01;;;;;;;9.47;5.50;;;16.10;99.90;;;;;;5045578;28;20583;-78
2023/07/03 02:57:28;;;;;;;10.17;4.83;;;16.10;99.90;;;;;;5044943;28;20230;-78
2023/07/03 02:59:55;;;;;;;9.87;4.87;;;16.10;99.90;;;;;;5044430;28;20286;-76
2023/07/03 03:02:22;;;;;;;5.67;4.47;;;16.10;99.90;;;;;;5045521;28;20784;-76
2023/07/03 03:04:50;;;;;;;10.63;5.10;;;16.10;99.90;;;;;;5045638;28;20226;-77
2023/07/03 03:07:17;;;;;;;5.80;4.30;;;16.20;99.90;;;;;;5042717;28;20220;-76
2023/07/03 03:09:44;;;;;;;7.00;4.90;;;16.20;99.90;;;;;;5026331;28;20867;-77
2023/07/03 03:12:11;;;;;;;9.93;4.70;;;16.20;99.90;;;;;;5026467;28;20205;-77
2023/07/03 03:14:38;;;;;;;8.77;5.57;;;16.20;99.90;;;;;;5026166;28;20292;-76
2023/07/03 03:17:05;;;;;;;8.33;4.60;;;16.20;99.90;;;;;;5026043;28;20205;-76
2023/07/03 03:19:32;;;;;;;7.17;4.70;;;16.30;99.90;;;;;;5026057;28;20300;-76
2023/07/03 03:22:00;;;;;;;5.90;4.37;;;16.40;99.90;;;;;;5026224;28;20307;-76
2023/07/03 03:24:27;;;;;;;7.70;4.67;;;16.40;99.90;;;;;;5025719;28;20223;-76
2023/07/03 03:26:54;;;;;;;4.87;4.37;;;16.40;99.90;;;;;;5026337;28;20291;-76
2023/07/03 03:29:21;;;;;;;6.70;4.33;;;16.30;99.90;;;;;;5025600;28;20255;-76
2023/07/03 03:31:47;;;;;;;8.10;4.70;;;16.30;99.90;;;;;;5027510;28;20209;-76
2023/07/03 03:34:15;;;;;;;9.03;4.57;;;16.30;99.90;;;;;;5045809;28;20304;-77
2023/07/03 03:36:43;;;;;;;5.93;4.60;;;16.30;99.90;;;;;;5045465;28;20220;-77
2023/07/03 03:39:11;;;;;;;9.07;5.07;;;16.30;99.90;;;;;;5045512;28;20258;-77
2023/07/03 03:41:38;;;;;;;8.37;5.07;;;16.30;99.90;;;;;;5045081;28;20290;-77
2023/07/03 03:44:05;;;;;;;7.63;4.87;;;16.30;99.90;;;;;;5045579;28;20304;-77
2023/07/03 03:46:32;;;;;;;7.43;4.77;;;16.30;99.90;;;;;;5045079;28;20206;-76
2023/07/03 03:48:59;;;;;;;5.53;4.60;;;16.40;99.90;;;;;;5045088;28;20323;-77
2023/07/03 03:51:26;;;;;;;5.27;4.57;;;16.30;99.90;;;;;;5045283;28;20214;-76
2023/07/03 03:53:53;;;;;;;7.30;4.53;;;16.30;99.90;;;;;;5045144;28;20238;-76
2023/07/03 03:56:21;;;;;;;8.73;4.90;;;16.30;99.90;;;;;;5045208;28;20228;-76
2023/07/03 03:58:48;;;;;;;7.00;4.50;;;16.30;99.90;;;;;;5045285;28;20212;-76
2023/07/03 04:01:15;;;;;;;5.07;4.57;;;16.40;99.90;;;;;;5045597;28;20323;-77
2023/07/03 04:03:42;;;;;;;7.07;5.33;;;16.40;99.90;;;;;;5045042;28;20597;-76
2023/07/03 04:06:10;;;;;;;6.10;4.57;;;16.50;99.90;;;;;;5045266;28;20208;-77
2023/07/03 04:08:37;;;;;;;9.17;5.03;;;16.50;99.90;;;;;;5045002;28;20702;-77
2023/07/03 04:11:04;;;;;;;9.03;4.67;;;16.50;99.90;;;;;;5045295;28;20246;-76
2023/07/03 04:13:32;;;;;;;5.77;4.33;;;16.50;99.90;;;;;;5043844;28;20219;-76
2023/07/03 04:16:01;;;;;;;8.33;4.80;;;16.50;99.90;;;;;;5044802;28;20291;-76
2023/07/03 04:18:29;;;;;;;6.60;4.53;;;16.50;99.90;;;;;;5044454;28;20307;-77
2023/07/03 04:20:57;;;;;;;10.67;5.27;;;16.50;99.90;;;;;;5044604;28;20261;-77
2023/07/03 04:23:24;;;;;;;7.03;4.83;;;16.50;99.90;;;;;;5044841;28;20212;-76
2023/07/03 04:25:51;;;;;;;10.27;5.40;;;16.60;99.90;;;;;;5044580;28;20247;-77
2023/07/03 04:28:20;;;;;;;8.27;5.47;;;16.60;99.90;;;;;;5044336;28;20986;-77
2023/07/03 04:30:49;;;;;;;5.50;4.13;;;16.60;99.90;;;;;;5026447;28;20204;-76
2023/07/03 04:33:17;;;;;;;10.30;4.83;;;16.70;99.90;;;;;;5024775;28;20248;-77
2023/07/03 04:35:44;;;;;;;7.73;4.77;;;16.70;99.90;;;;;;5025048;28;20341;-76
2023/07/03 04:38:11;;;;;;;7.90;4.40;;;16.70;99.90;;;;;;5040039;28;20212;-77
2023/07/03 04:40:38;;;;;;;10.17;5.50;;;16.80;99.90;;;;;;5044659;28;20247;-77
2023/07/03 04:43:07;;;;;;;13.80;5.37;;;16.80;99.90;;;;;;5045260;28;20333;-76
2023/07/03 04:45:40;;;;;;;9.57;5.03;;;16.90;99.90;;;;;;5044243;28;20212;-76
2023/07/03 04:48:09;;;;;;;5.47;4.93;;;17.00;99.90;;;;;;5044419;28;20220;-76
2023/07/03 04:50:36;;;;;;;7.23;4.83;;;17.10;99.90;;;;;;5044689;28;20579;-76
2023/07/03 04:53:03;;;;;;;6.50;5.00;;;17.10;99.90;;;;;;5044231;28;21149;-76
2023/07/03 04:55:31;;;;;;;5.90;4.50;;;17.00;99.90;;;;;;5044270;28;20220;-76
2023/07/03 04:57:59;;;;;;;9.00;5.23;;;17.00;99.90;;;;;;5044511;28;20764;-76
2023/07/03 05:00:27;;;;;;;7.50;4.90;;;16.90;99.90;;;;;;5043611;28;20235;-76
2023/07/03 05:02:58;;;;;;;7.20;5.50;;;16.90;99.90;;;;;;5044564;28;20220;-76
2023/07/03 05:05:27;;;;;;;10.63;5.30;;;16.90;99.90;;;;;;5044768;28;20620;-76
2023/07/03 05:07:54;;;;;;;6.67;4.87;;;16.90;99.90;;;;;;5044096;28;20212;-77
2023/07/03 05:10:22;;;;;;;6.23;4.80;;;17.00;99.90;;;;;;5044402;28;20291;-76
2023/07/03 05:12:49;;;;;;;8.93;5.37;;;17.00;99.90;;;;;;5044469;28;20266;-76
2023/07/03 05:15:18;;;;;;;7.33;5.03;;;17.00;99.90;;;;;;5044037;28;20291;-76
2023/07/03 05:17:49;;;;;;;10.27;5.30;;;17.00;99.90;;;;;;5044261;28;20299;-76
2023/07/03 05:20:18;;;;;;;7.67;5.07;;;17.00;99.90;;;;;;5044489;28;20203;-76
2023/07/03 05:22:46;;;;;;;9.07;5.37;;;17.10;99.90;;;;;;5043931;28;20204;-77
2023/07/03 05:25:15;;;;;;;8.13;5.23;;;17.10;99.90;;;;;;5046225;28;20208;-76
2023/07/03 05:27:43;;;;;;;7.27;5.10;;;17.10;99.90;;;;;;5047704;28;20748;-77
2023/07/03 05:30:11;;;;;;;8.13;5.13;;;17.10;99.90;;;;;;5047941;28;20227;-77
2023/07/03 05:32:38;;;;;;;7.70;4.90;;;17.10;99.90;;;;;;5047899;28;20234;-76
2023/07/03 05:35:06;;;;;;;9.67;5.67;;;17.20;99.90;;;;;;5047812;28;20323;-77
2023/07/03 05:37:35;;;;;;;5.40;4.30;;;17.40;99.90;;;;;;5035230;28;20248;-77
2023/07/03 05:40:05;;;;;;;6.87;5.20;;;17.40;99.90;;;;;;5027776;28;20244;-76
2023/07/03 05:42:32;;;;;;;9.60;5.07;;;17.40;99.90;;;;;;5043771;28;20218;-76
2023/07/03 05:44:59;;;;;;;9.10;5.07;;;17.40;99.90;;;;;;5047709;28;20208;-76
2023/07/03 05:47:25;;;;;;;7.30;5.40;;;17.50;99.90;;;;;;5047684;28;20307;-76
2023/07/03 05:49:53;;;;;;;7.63;4.90;;;17.50;99.90;;;;;;5047287;28;20728;-76
2023/07/03 05:52:20;;;;;;;7.70;5.40;;;17.50;99.90;;;;;;5047160;28;20675;-76
2023/07/03 05:54:47;;;;;;;8.17;5.50;;;17.50;99.90;;;;;;5047656;28;20208;-76
2023/07/03 05:57:15;;;;;;;8.80;5.43;;;17.50;99.90;;;;;;5047727;28;20299;-76
2023/07/03 05:59:42;;;;;;;8.73;5.43;;;17.40;99.90;;;;;;5047546;28;20287;-76
2023/07/03 06:02:13;;;;;;;9.90;5.80;;;17.40;99.90;;;;;;5047311;28;20216;-76
2023/07/03 06:04:40;;;;;;;8.43;5.13;;;17.50;99.90;;;;;;5047015;28;20200;-76
2023/07/03 06:07:08;;;;;;;9.57;5.23;;;17.40;99.90;;;;;;5047055;28;20208;-76
2023/07/03 06:09:35;;;;;;;8.90;5.10;;;17.50;99.90;;;;;;5046861;28;20238;-76
2023/07/03 06:12:03;;;;;;;8.60;5.33;;;17.50;99.90;;;;;;5047399;28;21030;-76
2023/07/03 06:14:32;;;;;;;10.93;5.50;;;17.60;99.90;;;;;;5046983;28;20204;-76
2023/07/03 06:16:59;;;;;;;7.73;5.27;;;17.70;99.90;;;;;;5046948;28;20208;-76
2023/07/03 06:19:27;;;;;;;11.50;5.07;;;17.70;99.90;;;;;;5046732;28;20300;-76
2023/07/03 06:21:54;;;;;;;7.00;5.30;;;17.70;99.90;;;;;;5046884;28;20214;-76
2023/07/03 06:24:21;;;;;;;9.83;5.80;;;17.70;99.90;;;;;;5046883;28;20211;-76
2023/07/03 06:26:48;;;;;;;12.10;5.73;;;17.60;99.90;;;;;;5047065;28;20204;-76
2023/07/03 06:29:15;;;;;;;6.57;4.97;;;17.60;99.90;;;;;;5046774;28;20228;-78
2023/07/03 06:31:43;;;;;;;8.07;4.90;;;17.70;99.90;;;;;;5046544;28;20205;-76
2023/07/03 06:34:10;;;;;;;11.90;5.60;;;17.70;99.90;;;;;;5046916;28;20311;-76
2023/07/03 06:36:37;;;;;;;9.27;4.77;;;17.70;99.90;;;;;;5043597;28;20315;-76
2023/07/03 06:39:05;;;;;;;9.50;5.30;;;17.70;99.90;;;;;;5046586;28;20303;-76
2023/07/03 06:41:34;;;;;;;8.27;5.30;;;17.80;99.90;;;;;;5046714;28;20239;-76
2023/07/03 06:44:01;;;;;;;8.13;5.10;;;17.80;99.90;;;;;;5046735;28;20227;-76
2023/07/03 06:46:28;;;;;;;10.17;5.20;;;17.90;99.90;;;;;;5046712;28;20291;-76
2023/07/03 06:48:57;;;;;;;10.10;4.97;;;17.90;99.90;;;;;;5046564;28;20242;-76
2023/07/03 06:51:25;;;;;;;9.70;5.17;;;17.80;99.90;;;;;;5046084;28;20210;-76
2023/07/03 06:53:53;;;;;;;10.20;5.77;;;17.80;99.90;;;;;;5046137;28;20204;-76
2023/07/03 06:56:21;;;;;;;10.77;5.00;;;17.80;99.90;;;;;;5045774;28;20238;-76
2023/07/03 06:58:48;;;;;;;11.33;5.67;;;17.80;99.90;;;;;;5046253;28;20287;-76
2023/07/03 07:01:17;;;;;;;7.27;4.40;;;17.80;99.90;;;;;;5046096;28;20212;-76
2023/07/03 07:03:45;;;;;;;7.40;4.50;;;17.90;99.90;;;;;;5046040;28;20213;-76
2023/07/03 07:06:15;;;;;;;10.20;5.00;;;17.90;99.90;;;;;;5045846;28;20903;-76
2023/07/03 07:08:42;;;;;;;6.63;5.07;;;17.90;99.90;;;;;;5046114;28;20231;-77
2023/07/03 07:11:12;;;;;;;9.53;5.17;;;17.90;99.90;;;;;;5045869;28;20675;-77
2023/07/03 07:13:41;;;;;;;9.87;4.97;;;18.00;99.90;;;;;;5046742;28;20208;-76
2023/07/03 07:16:12;;;;;;;9.47;5.33;;;17.90;99.90;;;;;;5046537;28;20307;-76
2023/07/03 07:18:40;;;;;;;10.77;5.70;;;18.00;99.90;;;;;;5046062;28;20197;-76
2023/07/03 07:21:07;;;;;;;7.30;5.10;;;18.00;99.90;;;;;;5046161;28;20635;-76
2023/07/03 07:23:35;;;;;;;8.53;5.07;;;18.00;99.90;;;;;;5046010;28;20239;-76
2023/07/03 07:26:02;;;;;;;8.93;4.77;;;18.00;99.90;;;;;;5045651;28;20258;-76
2023/07/03 07:28:29;;;;;;;8.77;5.23;;;17.90;99.90;;;;;;5045684;28;20212;-76
2023/07/03 07:30:57;;;;;;;8.07;4.83;;;17.90;99.90;;;;;;5025585;28;20327;-77
2023/07/03 07:33:24;;;;;;;11.53;5.27;;;17.90;99.90;;;;;;5027936;28;20240;-76
2023/07/03 07:35:51;;;;;;;9.90;4.67;;;17.90;99.90;;;;;;5045259;28;20228;-76
2023/07/03 07:38:19;;;;;;;9.33;4.80;;;18.00;99.90;;;;;;5045375;28;20266;-77
2023/07/03 07:40:48;;;;;;;8.60;4.97;;;18.10;99.90;;;;;;5045103;28;20267;-76
2023/07/03 07:43:15;;;;;;;8.13;4.60;;;18.10;99.90;;;;;;5045011;28;21042;-76
2023/07/03 07:45:42;;;;;;;11.97;5.50;;;18.10;99.90;;;;;;5045066;28;20209;-76
2023/07/03 07:48:09;;;;;;;9.27;5.10;;;18.10;99.90;;;;;;5044371;28;20913;-76
2023/07/03 07:50:36;;;;;;;10.70;5.50;;;18.20;99.90;;;;;;5044593;28;20232;-76
2023/07/03 07:53:04;;;;;;;14.20;5.00;;;18.30;99.90;;;;;;5045126;28;20319;-76
2023/07/03 07:55:31;;;;;;;8.70;4.53;;;18.30;99.90;;;;;;5044843;28;20212;-76
2023/07/03 07:57:59;;;;;;;9.50;5.80;;;18.30;99.90;;;;;;5045423;28;20261;-76
2023/07/03 08:00:26;;;;;;;8.63;5.07;;;18.30;99.90;;;;;;5044696;28;20633;-76
2023/07/03 08:02:53;;;;;;;9.60;5.67;;;18.30;99.90;;;;;;5044626;28;20218;-77
2023/07/03 08:05:20;;;;;;;8.10;5.27;;;18.30;99.90;;;;;;5044644;28;20216;-77
2023/07/03 08:07:48;;;;;;;8.17;5.10;;;18.40;99.90;;;;;;5044783;28;20204;-76
2023/07/03 08:10:16;;;;;;;8.00;5.00;;;18.30;99.90;;;;;;5044807;28;20263;-76
2023/07/03 08:12:43;;;;;;;8.77;5.60;;;18.50;99.90;;;;;;5044767;28;20208;-76
2023/07/03 08:15:12;;;;;;;7.93;4.87;;;18.50;99.90;;;;;;5045060;28;20212;-77
2023/07/03 08:17:39;;;;;;;8.40;5.03;;;18.60;99.90;;;;;;5044805;28;20314;-76
2023/07/03 08:20:11;;;;;;;9.63;5.10;;;18.60;99.90;;;;;;5044944;28;20212;-76
2023/07/03 08:22:38;;;;;;;10.57;5.00;;;18.60;99.90;;;;;;5044732;28;20192;-76
2023/07/03 08:25:06;;;;;;;11.37;5.00;;;18.60;99.90;;;;;;5044948;28;20207;-76
2023/07/03 08:27:33;;;;;;;13.10;4.63;;;18.60;99.90;;;;;;5045025;28;20219;-76
2023/07/03 08:30:00;;;;;;;10.97;5.20;;;18.60;99.90;;;;;;5044535;28;20710;-76
2023/07/03 08:32:28;;;;;;;10.40;4.63;;;18.70;99.90;;;;;;5044718;28;20204;-76
2023/07/03 08:34:55;;;;;;;8.07;4.87;;;18.80;99.90;;;;;;5044404;28;20857;-76
2023/07/03 08:37:22;;;;;;;8.00;4.20;;;18.90;99.90;;;;;;5033131;28;20213;-76
2023/07/03 08:39:49;;;;;;;7.30;4.20;;;18.90;99.90;;;;;;5024510;28;20351;-76
2023/07/03 08:42:22;;;;;;;8.07;4.13;;;19.00;99.90;;;;;;5024690;28;20307;-76
2023/07/03 08:44:49;;;;;;;7.13;4.03;;;19.10;99.90;;;;;;5027545;28;20219;-76
2023/07/03 08:47:21;;;;;;;7.93;4.50;;;19.20;99.90;;;;;;5044706;28;20212;-76
2023/07/03 08:49:51;;;;;;;7.90;4.10;;;19.20;99.90;;;;;;5044745;28;20411;-76
2023/07/03 08:52:24;;;;;;;7.17;4.03;;;19.30;99.90;;;;;;5044394;28;20226;-76
2023/07/03 08:54:53;;;;;;;6.97;4.20;;;19.40;99.90;;;;;;5044703;28;20228;-76
2023/07/03 08:57:21;;;;;;;7.37;4.20;;;19.50;99.90;;;;;;5044446;28;20212;-76
2023/07/03 08:59:48;;;;;;;7.87;4.30;;;19.60;99.90;;;;;;5045580;28;20208;-76
2023/07/03 09:02:23;;;;;;;7.70;4.33;;;19.70;99.90;;;;;;5048470;28;20204;-77
2023/07/03 09:05:09;;;;;;;8.87;4.27;;;19.70;99.90;;;;;;5048691;28;20243;-76
2023/07/03 09:07:41;;;;;;;7.57;3.33;;;19.90;99.90;;;;;;5048191;28;20303;-76
2023/07/03 09:10:16;;;;;;;7.53;3.60;;;19.90;99.90;;;;;;5048242;28;20220;-76
2023/07/03 09:12:52;;;;;;;7.43;3.67;;;20.10;99.60;;;;;;5048423;28;20234;-76
2023/07/03 09:15:25;;;;;;;8.53;3.80;;;20.00;98.90;;;;;;5048530;28;20196;-76
2023/07/03 09:17:55;;;;;;;6.00;4.00;;;20.00;99.20;;;;;;5048064;28;20716;-76
2023/07/03 09:20:26;;;;;;;7.30;3.73;;;20.10;98.10;;;;;;5048018;28;20307;-76
2023/07/03 09:22:58;;;;;;;8.33;3.40;;;20.20;98.80;;;;;;5035312;28;20723;-76
2023/07/03 09:25:32;;;;;;;8.37;3.60;;;20.30;97.80;;;;;;5033371;28;20208;-76
2023/07/03 09:28:02;;;;;;;9.90;3.20;;;20.20;98.30;;;;;;5047333;28;20222;-76
2023/07/03 09:30:29;;;;;;;10.30;3.33;;;20.20;97.60;;;;;;5047279;28;20239;-76
2023/07/03 09:32:57;;;;;;;6.73;3.20;;;20.20;97.70;;;;;;5047064;28;20303;-77
2023/07/03 09:35:33;;;;;;;6.83;3.60;;;20.20;98.00;;;;;;5047002;28;20231;-77
2023/07/03 09:38:01;;;;;;;8.60;4.00;;;20.10;97.90;;;;;;5046978;28;20192;-77
2023/07/03 09:40:32;;;;;;;8.40;3.97;;;20.30;98.90;;;;;;5046700;28;20883;-76
2023/07/03 09:43:00;;;;;;;8.47;3.60;;;20.40;98.30;;;;;;5047036;28;20740;-76
2023/07/03 09:45:32;;;;;;;8.13;3.60;;;20.40;98.10;;;;;;5047158;28;20315;-76
2023/07/03 09:48:01;;;;;;;7.73;3.60;;;20.20;98.00;;;;;;5047290;28;20200;-76
2023/07/03 09:50:32;;;;;;;5.73;3.30;;;20.20;98.00;;;;;;5047394;28;20321;-76
2023/07/03 09:52:59;;;;;;;7.97;3.80;;;20.20;97.90;;;;;;5047368;28;20287;-77
2023/07/03 09:55:27;;;;;;;7.60;3.57;;;20.20;98.00;;;;;;5046721;28;20227;-76
2023/07/03 09:57:54;;;;;;;6.40;3.03;;;20.20;97.80;;;;;;5047361;28;20203;-76
2023/07/03 10:00:23;;;;;;;10.33;3.30;;;20.30;97.90;;;;;;5047383;28;20236;-76
2023/07/03 10:02:53;;;;;;;5.93;3.30;;;20.20;97.10;;;;;;5047236;28;20291;-76
2023/07/03 10:05:29;;;;;;;5.17;3.00;;;20.30;97.80;;;;;;5047185;28;20650;-76
2023/07/03 10:08:02;;;;;;;12.30;3.27;;;20.40;97.80;;;;;;5046832;28;20215;-76
2023/07/03 10:10:33;;;;;;;5.40;3.23;;;20.30;97.40;;;;;;5046921;28;20256;-76
2023/07/03 10:13:06;;;;;;;6.90;2.90;;;20.40;98.00;;;;;;5046422;28;20193;-76
2023/07/03 10:15:38;;;;;;;5.57;2.93;;;20.50;97.90;;;;;;5046730;28;20943;-76
2023/07/03 10:18:09;;;;;;;5.07;3.17;;;20.40;97.40;;;;;;5046408;28;21044;-76
2023/07/03 10:20:41;;;;;;;4.43;3.00;;;20.30;96.90;;;;;;5046713;28;20275;-76
2023/07/03 10:23:12;;;;;;;6.80;3.30;;;20.40;97.10;;;;;;5046460;28;20280;-77
2023/07/03 10:25:44;;;;;;;4.03;2.77;;;20.40;97.50;;;;;;5046728;28;20295;-76
2023/07/03 10:28:15;;;;;;;5.13;2.40;;;20.50;97.90;;;;;;5046868;28;20192;-76
2023/07/03 10:30:42;;;;;;;3.60;2.67;;;20.60;96.90;;;;;;5028957;28;20320;-76
2023/07/03 10:33:18;;;;;;;5.70;3.10;;;20.70;96.20;;;;;;5026833;28;20681;-76
2023/07/03 10:35:50;;;;;;;4.93;3.07;;;20.80;96.70;;;;;;5026210;28;20817;-76
2023/07/03 10:38:27;;;;;;;12.90;3.80;;;20.90;96.20;;;;;;5038569;28;20219;-76
2023/07/03 10:40:59;;;;;;;7.47;3.10;;;20.60;96.20;;;;;;5046047;28;20334;-76
2023/07/03 10:43:29;;;;;;;5.80;3.23;;;20.70;96.70;;;;;;5046758;28;20273;-77
2023/07/03 10:45:57;;;;;;;6.77;3.30;;;20.90;96.80;;;;;;5046482;28;20202;-77
2023/07/03 10:48:29;;;;;;;6.03;2.97;;;21.00;96.50;;;;;;5046615;28;20291;-76
2023/07/03 10:51:07;;;;;;;6.43;3.20;;;21.00;96.50;;;;;;5046478;28;20315;-76
2023/07/03 10:53:41;;;;;;;7.47;3.10;;;21.20;96.30;;;;;;5046102;28;20203;-76
2023/07/03 10:56:15;;;;;;;6.47;2.80;;;21.10;96.30;;;;;;5046322;28;20222;-77
2023/07/03 10:58:48;;;;;;;8.03;3.43;;;21.20;96.50;;;;;;5046460;28;20251;-76
2023/07/03 11:01:20;;;;;;;8.43;3.25;;;21.10;96.70;;;;;;5046266;28;20664;-76
2023/07/03 11:03:55;;;;;;;6.87;3.13;;;21.00;97.40;;;;;;5046234;28;20202;-76
2023/07/03 11:06:29;;;;;;;8.00;3.30;;;20.90;97.60;;;;;;5046005;28;20211;-76
2023/07/03 11:09:04;;;;;;;14.70;3.40;;;20.70;97.90;;;;;;5045755;28;20675;-76
2023/07/03 11:11:38;;;;;;;9.43;3.67;;;20.50;97.80;;;;;;5045319;28;20232;-76
2023/07/03 11:14:14;;;;;;;8.77;3.30;;;20.60;98.00;;;;;;5045468;28;20926;-76
2023/07/03 11:16:52;;;;;;;4.47;2.67;;;20.80;98.50;;;;;;5045445;28;20279;-77
2023/07/03 11:19:29;;;;;;;6.53;3.20;;;21.10;98.10;;;;;;5045040;28;20218;-76
2023/07/03 11:22:07;;;;;;;9.57;3.50;;;21.20;97.50;;;;;;5045311;28;20235;-76
2023/07/03 11:24:45;;;;;;;9.57;3.40;;;21.10;97.30;;;;;;5045184;28;20231;-76
2023/07/03 11:27:22;;;;;;;9.97;3.10;;;20.90;97.30;;;;;;5045227;28;20673;-77
2023/07/03 11:29:49;;;;;;;8.13;3.17;;;20.80;97.40;;;;;;5045532;28;20195;-76
2023/07/03 11:32:18;;;;;;;8.77;3.20;;;20.80;97.60;;;;;;5045420;28;20211;-76
2023/07/03 11:34:46;;;;;;;8.20;3.57;;;20.80;97.80;;;;;;5045611;28;20228;-77
2023/07/03 11:37:42;;;;;;;5.83;2.97;;;20.70;98.10;;;;;;5045110;28;20302;-76
2023/07/03 11:40:34;;;;;;;8.00;2.83;;;20.70;97.90;;;;;;5045297;28;20271;-76
2023/07/03 11:43:23;;;;;;;9.87;3.23;;;20.80;97.70;;;;;;5045785;28;20204;-76
2023/07/03 11:46:02;;;;;;;7.50;2.80;;;21.00;98.40;;;;;;5045311;28;20198;-77
2023/07/03 11:48:31;;;;;;;5.70;3.23;;;20.90;97.80;;;;;;5045112;28;20231;-76
2023/07/03 11:50:59;;;;;;;10.70;3.37;;;21.00;97.90;;;;;;5044966;28;20267;-76
2023/07/03 11:53:35;;;;;;;6.07;2.93;;;21.20;98.30;;;;;;5045681;28;20308;-77
2023/07/03 11:56:05;;;;;;;9.10;3.10;;;21.30;98.50;;;;;;5045599;28;20210;-76
2023/07/03 11:58:34;;;;;;;9.57;3.37;;;21.10;98.90;;;;;;5045266;28;20298;-76
2023/07/03 12:01:23;;;;;;;7.20;3.20;;;21.00;98.50;;;;;;5044918;28;20659;-77
2023/07/03 12:03:52;;;;;;;9.83;3.00;;;20.70;97.50;;;;;;5045273;28;21044;-77
2023/07/03 12:06:46;;;;;;;10.23;3.30;;;20.60;97.10;;;;;;5045140;28;20402;-76
2023/07/03 12:09:29;;;;;;;9.80;3.20;;;20.50;96.90;;;;;;5045334;28;20212;-76
2023/07/03 12:12:19;;;;;;;6.50;2.90;;;20.30;97.20;;;;;;5045016;28;20417;-76
2023/07/03 12:14:56;;;;;;;8.67;3.07;;;20.30;97.60;;;;;;5044891;28;20212;-76
2023/07/03 12:17:25;;;;;;;5.50;2.93;;;20.30;97.80;;;;;;5045052;28;20200;-76
2023/07/03 12:19:56;;;;;;;6.13;3.27;;;20.40;98.10;;;;;;5044627;28;20295;-76
2023/07/03 12:22:26;;;;;;;10.00;3.43;;;20.30;98.20;;;;;;5044667;28;20279;-76
2023/07/03 12:25:05;;;;;;;6.80;3.10;;;20.30;98.80;;;;;;5044670;28;20192;-76
2023/07/03 12:27:33;;;;;;;6.53;2.70;;;20.30;98.70;;;;;;5044851;28;20627;-77
2023/07/03 12:30:01;;;;;;;7.60;2.90;;;20.30;98.90;;;;;;5037673;28;20212;-76
2023/07/03 12:32:29;;;;;;;10.00;3.73;;;20.40;99.20;;;;;;5044605;28;20709;-76
2023/07/03 12:35:15;;;;;;;7.87;3.10;;;20.40;99.30;;;;;;5046636;28;20232;-76
2023/07/03 12:37:44;;;;;;;7.77;3.30;;;20.50;99.60;;;;;;5035364;28;20254;-76
2023/07/03 12:40:13;;;;;;;10.47;3.27;;;20.40;99.50;;;;;;5029052;28;20286;-76
2023/07/03 12:42:41;;;;;;;5.77;2.90;;;20.60;99.40;;;;;;5028859;28;20321;-76
2023/07/03 12:45:14;;;;;;;6.03;3.13;;;20.70;99.30;;;;;;5029100;28;20212;-77
2023/07/03 12:47:41;;;;;;;7.73;3.50;;;21.20;99.60;;;;;;5029104;28;21041;-76
2023/07/03 12:50:14;;;;;;;11.60;3.60;;;21.60;99.30;;;;;;5038581;28;21116;-76
2023/07/03 12:52:41;;;;;;;8.27;3.45;;;21.90;98.90;;;;;;5044190;28;20294;-76
2023/07/03 12:55:09;;;;;;;7.07;3.07;;;21.90;98.10;;;;;;5047193;28;20200;-77
2023/07/03 12:57:38;;;;;;;9.70;3.45;;;21.90;98.20;;;;;;5048631;28;20767;-76